createdAt,value
2023-02-16T00:00:50.842Z,30.30
2023-02-16T00:01:53.593Z,26.93
2023-02-16T00:02:55.363Z,27.57
2023-02-16T00:03:57.917Z,30.13
2023-02-16T00:04:59.663Z,27.37
2023-02-16T00:06:01.364Z,31.40
2023-02-16T00:07:03.157Z,30.63
2023-02-16T00:08:05.076Z,29.20
2023-02-16T00:09:06.793Z,28.77
2023-02-16T00:10:09.809Z,28.93
2023-02-16T00:11:47.917Z,31.77
2023-02-16T00:13:09.067Z,31.07
2023-02-16T00:14:12.070Z,31.37
2023-02-16T00:15:19.495Z,31.83
2023-02-16T00:16:24.400Z,31.80
2023-02-16T00:17:26.156Z,31.93
2023-02-16T00:18:27.903Z,33.13
2023-02-16T00:19:36.905Z,31.07
2023-02-16T00:20:38.630Z,31.93
2023-02-16T00:21:40.341Z,29.77
2023-02-16T00:22:42.020Z,32.97
2023-02-16T00:23:43.684Z,32.40
2023-02-16T00:24:45.421Z,29.37
2023-02-16T00:25:47.219Z,29.33
2023-02-16T00:26:49.671Z,29.00
2023-02-16T00:27:51.546Z,29.90
2023-02-16T00:28:58.407Z,30.97
2023-02-16T00:30:00.575Z,27.90
2023-02-16T00:31:03.026Z,28.60
2023-02-16T00:32:06.390Z,27.70
2023-02-16T00:33:16.545Z,26.23
2023-02-16T00:34:45.887Z,30.47
2023-02-16T00:35:48.503Z,25.47
2023-02-16T00:36:50.305Z,27.47
2023-02-16T00:37:52.071Z,27.13
2023-02-16T00:38:53.824Z,31.60
2023-02-16T00:39:55.608Z,26.60
2023-02-16T00:40:57.410Z,27.00
2023-02-16T00:42:02.991Z,24.07
2023-02-16T00:43:04.904Z,27.10
2023-02-16T00:44:23.669Z,24.70
2023-02-16T00:45:26.328Z,26.10
2023-02-16T00:46:28.118Z,23.70
2023-02-16T00:47:41.651Z,26.27
2023-02-16T00:48:45.238Z,27.83
2023-02-16T00:49:52.652Z,26.10
2023-02-16T00:50:54.496Z,29.63
2023-02-16T00:51:56.361Z,30.53
2023-02-16T00:52:58.908Z,24.70
2023-02-16T00:54:00.638Z,30.70
2023-02-16T00:55:08.871Z,28.10
2023-02-16T00:56:13.540Z,24.20
2023-02-16T00:57:18.878Z,25.23
2023-02-16T00:58:30.498Z,26.93
2023-02-16T00:59:32.208Z,28.30
2023-02-16T01:00:41.650Z,27.13
2023-02-16T01:01:44.015Z,24.67
2023-02-16T01:02:48.763Z,26.30
2023-02-16T01:03:50.438Z,25.17
2023-02-16T01:04:52.407Z,27.43
2023-02-16T01:06:14.479Z,25.63
2023-02-16T01:07:36.483Z,25.73
2023-02-16T01:08:56.920Z,28.67
2023-02-16T01:10:17.118Z,28.23
2023-02-16T01:11:19.459Z,25.03
2023-02-16T01:12:22.195Z,28.00
2023-02-16T01:13:26.415Z,30.13
2023-02-16T01:14:29.579Z,27.43
2023-02-16T01:15:31.735Z,26.07
2023-02-16T01:16:40.604Z,28.13
2023-02-16T01:17:42.331Z,26.93
2023-02-16T01:18:44.513Z,24.77
2023-02-16T01:19:46.238Z,27.50
2023-02-16T01:20:48.369Z,26.67
2023-02-16T01:21:50.107Z,29.17
2023-02-16T01:22:51.965Z,27.03
2023-02-16T01:23:53.664Z,27.30
2023-02-16T01:24:55.335Z,26.50
2023-02-16T01:25:57.230Z,25.27
2023-02-16T01:26:59.053Z,28.90
2023-02-16T01:28:00.839Z,26.57
2023-02-16T01:29:02.516Z,25.63
2023-02-16T01:30:06.423Z,27.20
2023-02-16T01:31:10.696Z,24.10
2023-02-16T01:32:12.954Z,24.00
2023-02-16T01:33:14.954Z,22.83
2023-02-16T01:34:16.793Z,23.60
2023-02-16T01:35:20.284Z,25.83
2023-02-16T01:36:28.603Z,25.90
2023-02-16T01:37:30.409Z,23.53
2023-02-16T01:38:32.169Z,23.80
2023-02-16T01:39:33.881Z,25.87
2023-02-16T01:40:35.541Z,25.07
2023-02-16T01:41:43.748Z,22.30
2023-02-16T01:42:51.857Z,26.37
2023-02-16T01:43:59.692Z,22.60
2023-02-16T01:45:15.678Z,24.70
2023-02-16T01:46:25.576Z,25.23
2023-02-16T01:47:49.839Z,28.80
2023-02-16T01:48:51.554Z,22.57
2023-02-16T01:49:53.283Z,28.60
2023-02-16T01:51:16.542Z,24.70
2023-02-16T01:52:27.605Z,25.70
2023-02-16T01:53:44.294Z,26.93
2023-02-16T01:55:15.481Z,26.80
2023-02-16T01:56:43.282Z,24.83
2023-02-16T01:57:46.847Z,29.80
2023-02-16T01:58:53.660Z,27.80
2023-02-16T01:59:55.443Z,29.87
2023-02-16T02:00:57.169Z,27.40
2023-02-16T02:02:02.097Z,30.80
2023-02-16T02:03:26.696Z,32.23
2023-02-16T02:04:55.834Z,28.67
2023-02-16T02:05:57.560Z,30.77
2023-02-16T02:06:59.277Z,29.93
2023-02-16T02:08:14.165Z,27.40
2023-02-16T02:09:29.776Z,28.00
2023-02-16T02:10:46.232Z,26.60
2023-02-16T02:12:20.116Z,29.20
2023-02-16T02:13:29.259Z,26.00
2023-02-16T02:14:35.598Z,30.63
2023-02-16T02:15:37.484Z,25.03
2023-02-16T02:16:39.400Z,27.27
2023-02-16T02:17:41.133Z,30.13
2023-02-16T02:18:44.827Z,26.30
2023-02-16T02:20:13.911Z,26.77
2023-02-16T02:22:04.678Z,30.10
2023-02-16T02:23:32.942Z,25.23
2023-02-16T02:24:46.423Z,23.13
2023-02-16T02:26:15.640Z,23.67
2023-02-16T02:27:27.651Z,23.90
2023-02-16T02:28:55.031Z,27.10
2023-02-16T02:30:18.362Z,29.47
2023-02-16T02:31:40.452Z,22.07
2023-02-16T02:33:03.607Z,26.17
2023-02-16T02:34:17.095Z,25.73
2023-02-16T02:35:34.319Z,22.40
2023-02-16T02:36:40.553Z,26.43
2023-02-16T02:37:56.165Z,24.00
2023-02-16T02:39:19.489Z,25.20
2023-02-16T02:40:39.692Z,27.40
2023-02-16T02:42:03.951Z,20.70
2023-02-16T02:43:20.873Z,23.50
2023-02-16T02:44:26.954Z,26.50
2023-02-16T02:45:37.449Z,25.53
2023-02-16T02:46:39.602Z,24.20
2023-02-16T02:47:44.594Z,26.57
2023-02-16T02:48:46.691Z,22.77
2023-02-16T02:49:53.467Z,22.87
2023-02-16T02:51:26.765Z,23.33
2023-02-16T02:52:28.478Z,19.70
2023-02-16T02:53:30.833Z,23.33
2023-02-16T02:54:56.001Z,26.20
2023-02-16T02:56:24.879Z,25.50
2023-02-16T02:57:53.754Z,22.50
2023-02-16T02:59:19.680Z,25.93
2023-02-16T03:00:53.378Z,21.77
2023-02-16T03:01:59.455Z,24.10
2023-02-16T03:03:27.764Z,24.83
2023-02-16T03:04:31.442Z,25.83
2023-02-16T03:05:35.195Z,25.57
2023-02-16T03:06:40.214Z,26.10
2023-02-16T03:07:47.089Z,25.33
2023-02-16T03:08:54.744Z,25.30
2023-02-16T03:10:16.597Z,27.37
2023-02-16T03:11:43.128Z,23.40
2023-02-16T03:12:45.208Z,22.83
2023-02-16T03:13:53.234Z,28.23
2023-02-16T03:15:01.444Z,24.67
2023-02-16T03:16:08.529Z,28.73
2023-02-16T03:17:39.539Z,26.27
2023-02-16T03:19:02.659Z,25.50
2023-02-16T03:20:27.124Z,23.70
2023-02-16T03:21:47.846Z,22.90
2023-02-16T03:23:09.040Z,21.43
2023-02-16T03:24:33.937Z,21.33
2023-02-16T03:25:57.008Z,22.07
2023-02-16T03:27:17.773Z,22.17
2023-02-16T03:28:41.952Z,24.07
2023-02-16T03:29:46.501Z,21.57
2023-02-16T03:30:50.767Z,26.03
2023-02-16T03:31:55.410Z,25.93
2023-02-16T03:32:57.241Z,25.40
2023-02-16T03:33:59.207Z,24.27
2023-02-16T03:35:01.241Z,24.77
2023-02-16T03:36:04.507Z,24.50
2023-02-16T03:37:06.562Z,24.93
2023-02-16T03:38:08.560Z,22.27
2023-02-16T03:39:11.143Z,22.37
2023-02-16T03:40:28.378Z,23.33
2023-02-16T03:41:38.301Z,26.30
2023-02-16T03:42:40.038Z,26.90
2023-02-16T03:43:41.778Z,23.37
2023-02-16T03:44:43.527Z,25.20
2023-02-16T03:45:45.619Z,26.93
2023-02-16T03:46:49.635Z,22.23
2023-02-16T03:47:51.485Z,23.50
2023-02-16T03:48:53.187Z,25.37
2023-02-16T03:49:54.881Z,24.03
2023-02-16T03:50:56.622Z,21.60
2023-02-16T03:51:58.333Z,26.40
2023-02-16T03:53:09.361Z,22.60
2023-02-16T03:54:11.976Z,25.20
2023-02-16T03:55:13.841Z,24.10
2023-02-16T03:56:15.614Z,23.63
2023-02-16T03:57:17.294Z,24.10
2023-02-16T03:58:21.898Z,21.67
2023-02-16T03:59:23.650Z,20.97
2023-02-16T04:00:25.505Z,24.33
2023-02-16T04:01:27.216Z,25.60
2023-02-16T04:02:29.218Z,21.30
2023-02-16T04:03:31.035Z,21.50
2023-02-16T04:04:32.760Z,20.77
2023-02-16T04:05:34.550Z,21.60
2023-02-16T04:06:36.340Z,23.17
2023-02-16T04:07:38.011Z,17.33
2023-02-16T04:08:40.115Z,19.63
2023-02-16T04:09:41.800Z,26.27
2023-02-16T04:10:43.681Z,17.97
2023-02-16T04:12:04.038Z,21.07
2023-02-16T04:13:06.234Z,19.13
2023-02-16T04:14:08.022Z,18.73
2023-02-16T04:15:18.860Z,17.10
2023-02-16T04:16:20.595Z,18.10
2023-02-16T04:17:22.309Z,20.33
2023-02-16T04:18:24.026Z,18.30
2023-02-16T04:19:25.862Z,18.70
2023-02-16T04:20:30.964Z,18.70
2023-02-16T04:21:32.679Z,18.53
2023-02-16T04:22:34.366Z,20.60
2023-02-16T04:23:36.136Z,17.70
2023-02-16T04:24:38.278Z,17.27
2023-02-16T04:25:40.003Z,20.13
2023-02-16T04:26:41.825Z,18.27
2023-02-16T04:27:45.124Z,16.47
2023-02-16T04:28:46.842Z,20.90
2023-02-16T04:29:48.611Z,17.77
2023-02-16T04:30:51.874Z,22.03
2023-02-16T04:31:53.807Z,20.40
2023-02-16T04:32:56.386Z,18.67
2023-02-16T04:33:58.207Z,17.60
2023-02-16T04:34:59.960Z,16.93
2023-02-16T04:36:01.864Z,18.23
2023-02-16T04:37:03.739Z,15.40
2023-02-16T04:38:05.729Z,20.73
2023-02-16T04:39:07.490Z,19.50
2023-02-16T04:40:13.555Z,18.27
2023-02-16T04:41:15.306Z,17.27
2023-02-16T04:42:17.095Z,16.37
2023-02-16T04:43:18.858Z,18.63
2023-02-16T04:44:20.678Z,17.60
2023-02-16T04:45:22.530Z,16.73
2023-02-16T04:46:24.505Z,16.80
2023-02-16T04:47:26.721Z,17.70
2023-02-16T04:48:28.513Z,16.87
2023-02-16T04:49:30.252Z,18.67
2023-02-16T04:50:31.933Z,19.07
2023-02-16T04:51:33.714Z,17.13
2023-02-16T04:52:36.782Z,17.40
2023-02-16T04:53:38.621Z,15.47
2023-02-16T04:54:40.662Z,17.37
2023-02-16T04:55:49.478Z,17.03
2023-02-16T04:56:51.194Z,16.77
2023-02-16T04:57:53.330Z,16.20
2023-02-16T04:58:56.073Z,16.17
2023-02-16T04:59:57.809Z,16.33
2023-02-16T05:00:59.764Z,17.57
2023-02-16T05:02:01.552Z,17.23
2023-02-16T05:03:03.474Z,17.17
2023-02-16T05:04:05.435Z,17.90
2023-02-16T05:05:07.729Z,18.97
2023-02-16T05:06:09.434Z,16.67
2023-02-16T05:07:11.157Z,15.67
2023-02-16T05:08:12.954Z,18.97
2023-02-16T05:09:14.835Z,17.20
2023-02-16T05:10:16.803Z,17.00
2023-02-16T05:11:37.394Z,19.20
2023-02-16T05:12:57.530Z,14.57
2023-02-16T05:14:18.573Z,17.27
2023-02-16T05:15:20.297Z,15.67
2023-02-16T05:16:25.257Z,16.80
2023-02-16T05:17:27.475Z,15.73
2023-02-16T05:18:29.213Z,18.17
2023-02-16T05:19:30.982Z,16.73
2023-02-16T05:20:51.337Z,20.63
2023-02-16T05:21:53.088Z,21.53
2023-02-16T05:22:54.976Z,18.50
2023-02-16T05:23:57.594Z,17.50
2023-02-16T05:24:59.457Z,15.60
2023-02-16T05:26:01.159Z,17.33
2023-02-16T05:27:04.723Z,21.93
2023-02-16T05:28:06.714Z,18.93
2023-02-16T05:29:08.523Z,17.93
2023-02-16T05:30:10.992Z,17.10
2023-02-16T05:31:12.875Z,19.50
2023-02-16T05:32:15.011Z,20.87
2023-02-16T05:33:16.758Z,19.13
2023-02-16T05:34:18.616Z,16.03
2023-02-16T05:35:20.421Z,16.53
2023-02-16T05:36:23.024Z,18.43
2023-02-16T05:37:24.993Z,16.77
2023-02-16T05:38:26.763Z,16.87
2023-02-16T05:39:28.717Z,17.30
2023-02-16T05:40:30.457Z,18.83
2023-02-16T05:41:32.348Z,17.97
2023-02-16T05:42:34.240Z,17.23
2023-02-16T05:43:36.120Z,18.23
2023-02-16T05:44:38.013Z,17.67
2023-02-16T05:45:39.796Z,23.57
2023-02-16T05:46:41.990Z,17.40
2023-02-16T05:47:46.187Z,20.43
2023-02-16T05:48:49.352Z,17.33
2023-02-16T05:49:51.133Z,19.07
2023-02-16T05:50:55.873Z,19.83
2023-02-16T05:51:57.815Z,18.23
2023-02-16T05:52:59.576Z,16.43
2023-02-16T05:54:01.495Z,16.50
2023-02-16T05:55:03.975Z,18.03
2023-02-16T05:56:07.417Z,16.53
2023-02-16T05:57:10.153Z,16.67
2023-02-16T05:58:12.014Z,18.87
2023-02-16T05:59:14.949Z,20.03
2023-02-16T06:00:17.115Z,18.80
2023-02-16T06:01:18.979Z,17.60
2023-02-16T06:02:20.817Z,18.93
2023-02-16T06:03:22.766Z,20.27
2023-02-16T06:04:24.644Z,18.60
2023-02-16T06:05:26.548Z,18.40
2023-02-16T06:06:28.300Z,19.13
2023-02-16T06:07:30.064Z,19.70
2023-02-16T06:08:32.583Z,20.53
2023-02-16T06:09:34.358Z,19.30
2023-02-16T06:10:36.134Z,18.17
2023-02-16T06:11:37.976Z,20.83
2023-02-16T06:12:39.703Z,19.57
2023-02-16T06:13:41.433Z,20.20
2023-02-16T06:14:43.211Z,19.53
2023-02-16T06:15:45.331Z,21.67
2023-02-16T06:16:49.855Z,22.73
2023-02-16T06:17:51.592Z,20.30
2023-02-16T06:18:54.277Z,35.53
2023-02-16T06:19:56.056Z,49.40
2023-02-16T06:20:57.916Z,33.07
2023-02-16T06:21:59.574Z,25.60
2023-02-16T06:23:01.243Z,23.67
2023-02-16T06:24:03.410Z,21.80
2023-02-16T06:25:05.330Z,21.47
2023-02-16T06:26:06.992Z,20.03
2023-02-16T06:27:08.793Z,19.73
2023-02-16T06:28:11.176Z,21.13
2023-02-16T06:29:12.881Z,21.83
2023-02-16T06:30:14.909Z,22.87
2023-02-16T06:31:16.879Z,25.30
2023-02-16T06:32:18.816Z,22.47
2023-02-16T06:33:20.770Z,23.57
2023-02-16T06:34:22.616Z,26.47
2023-02-16T06:35:24.381Z,24.23
2023-02-16T06:36:26.218Z,26.73
2023-02-16T06:37:27.976Z,23.50
2023-02-16T06:38:29.715Z,22.27
2023-02-16T06:39:31.456Z,25.80
2023-02-16T06:40:33.251Z,23.30
2023-02-16T06:41:37.895Z,23.83
2023-02-16T06:42:40.060Z,22.73
2023-02-16T06:43:41.738Z,24.80
2023-02-16T06:44:44.319Z,23.20
2023-02-16T06:45:46.994Z,25.53
2023-02-16T06:46:49.013Z,20.83
2023-02-16T06:47:50.754Z,24.37
2023-02-16T06:48:52.731Z,22.50
2023-02-16T06:49:54.567Z,23.57
2023-02-16T06:50:56.704Z,25.23
2023-02-16T06:51:58.592Z,33.20
2023-02-16T06:53:00.266Z,28.83
2023-02-16T06:54:01.986Z,23.83
2023-02-16T06:55:03.928Z,26.47
2023-02-16T06:56:05.737Z,24.60
2023-02-16T06:57:07.410Z,26.67
2023-02-16T06:58:10.132Z,24.37
2023-02-16T06:59:12.733Z,27.40
2023-02-16T07:00:15.201Z,26.10
2023-02-16T07:01:22.823Z,24.43
2023-02-16T07:02:24.732Z,30.10
2023-02-16T07:03:26.533Z,33.67
2023-02-16T07:04:28.549Z,33.87
2023-02-16T07:05:30.569Z,33.17
2023-02-16T07:06:32.297Z,31.83
2023-02-16T07:07:34.030Z,29.20
2023-02-16T07:08:36.055Z,25.90
2023-02-16T07:09:38.090Z,23.93
2023-02-16T07:10:50.152Z,26.97
2023-02-16T07:11:52.212Z,26.67
2023-02-16T07:12:54.068Z,26.10
2023-02-16T07:13:55.930Z,26.10
2023-02-16T07:14:57.871Z,20.27
2023-02-16T07:15:59.619Z,26.00
2023-02-16T07:17:04.368Z,23.60
2023-02-16T07:18:06.614Z,26.03
2023-02-16T07:19:08.775Z,25.73
2023-02-16T07:20:12.694Z,25.53
2023-02-16T07:21:14.770Z,21.20
2023-02-16T07:22:17.539Z,22.57
2023-02-16T07:23:19.228Z,22.67
2023-02-16T07:24:21.092Z,22.40
2023-02-16T07:25:25.286Z,20.97
2023-02-16T07:26:27.049Z,24.83
2023-02-16T07:27:28.816Z,25.23
2023-02-16T07:28:30.702Z,21.40
2023-02-16T07:29:32.406Z,23.10
2023-02-16T07:30:34.232Z,22.70
2023-02-16T07:31:36.281Z,24.23
2023-02-16T07:32:38.428Z,21.37
2023-02-16T07:33:41.045Z,21.97
2023-02-16T07:34:42.751Z,22.37
2023-02-16T07:35:44.547Z,21.83
2023-02-16T07:36:46.330Z,19.40
2023-02-16T07:37:48.089Z,19.93
2023-02-16T07:38:49.957Z,23.17
2023-02-16T07:39:53.060Z,24.20
2023-02-16T07:40:54.850Z,23.33
2023-02-16T07:41:56.745Z,22.53
2023-02-16T07:43:07.803Z,21.37
2023-02-16T07:44:09.559Z,28.97
2023-02-16T07:45:11.290Z,24.03
2023-02-16T07:46:13.081Z,27.23
2023-02-16T07:47:14.874Z,28.23
2023-02-16T07:48:16.824Z,25.13
2023-02-16T07:49:18.516Z,29.23
2023-02-16T07:50:20.741Z,27.03
2023-02-16T07:51:31.744Z,27.87
2023-02-16T07:52:34.287Z,28.50
2023-02-16T07:53:36.056Z,28.53
2023-02-16T07:54:37.965Z,28.40
2023-02-16T07:55:44.571Z,31.77
2023-02-16T07:56:47.008Z,26.90
2023-02-16T07:57:49.561Z,27.77
2023-02-16T07:58:56.051Z,29.80
2023-02-16T07:59:57.860Z,30.03
2023-02-16T08:01:14.778Z,28.87
2023-02-16T08:02:18.044Z,29.80
2023-02-16T08:03:20.031Z,30.00
2023-02-16T08:04:21.993Z,31.40
2023-02-16T08:05:23.904Z,32.50
2023-02-16T08:06:26.102Z,34.23
2023-02-16T08:07:27.989Z,29.13
2023-02-16T08:08:29.984Z,35.90
2023-02-16T08:09:31.990Z,39.97
2023-02-16T08:10:33.752Z,32.50
2023-02-16T08:11:35.494Z,36.10
2023-02-16T08:12:37.587Z,34.83
2023-02-16T08:13:39.364Z,32.27
2023-02-16T08:14:41.938Z,39.93
2023-02-16T08:15:44.728Z,36.10
2023-02-16T08:16:46.552Z,40.87
2023-02-16T08:17:48.326Z,33.40
2023-02-16T08:18:50.877Z,36.50
2023-02-16T08:19:52.600Z,38.47
2023-02-16T08:21:03.903Z,36.67
2023-02-16T08:22:07.853Z,36.90
2023-02-16T08:23:10.366Z,41.53
2023-02-16T08:24:13.296Z,36.13
2023-02-16T08:25:16.034Z,49.53
2023-02-16T08:26:18.948Z,44.23
2023-02-16T08:27:21.352Z,39.63
2023-02-16T08:28:28.624Z,38.73
2023-02-16T08:29:31.783Z,39.97
2023-02-16T08:30:34.771Z,37.00
2023-02-16T08:31:38.201Z,40.00
2023-02-16T08:32:40.736Z,35.90
2023-02-16T08:33:43.013Z,40.57
2023-02-16T08:34:44.735Z,36.97
2023-02-16T08:35:46.396Z,33.53
2023-02-16T08:36:56.628Z,35.83
2023-02-16T08:37:59.743Z,38.10
2023-02-16T08:39:04.443Z,37.50
2023-02-16T08:40:11.709Z,37.63
2023-02-16T08:41:13.574Z,40.90
2023-02-16T08:42:15.283Z,40.27
2023-02-16T08:43:17.158Z,41.07
2023-02-16T08:44:20.177Z,42.77
2023-02-16T08:45:21.988Z,42.53
2023-02-16T08:46:23.943Z,45.33
2023-02-16T08:47:25.706Z,41.30
2023-02-16T08:48:28.816Z,41.63
2023-02-16T08:49:30.587Z,37.50
2023-02-16T08:50:32.762Z,42.60
2023-02-16T08:51:37.314Z,37.03
2023-02-16T08:52:39.018Z,35.13
2023-02-16T08:53:40.711Z,37.70
2023-02-16T08:54:42.726Z,34.17
2023-02-16T08:55:54.627Z,36.93
2023-02-16T08:56:59.165Z,38.07
2023-02-16T08:58:01.130Z,32.70
2023-02-16T08:59:02.861Z,29.60
2023-02-16T09:00:23.688Z,30.30
2023-02-16T09:01:25.803Z,28.40
2023-02-16T09:02:28.551Z,31.07
2023-02-16T09:03:32.568Z,24.37
2023-02-16T09:04:34.445Z,28.10
2023-02-16T09:05:36.150Z,26.13
2023-02-16T09:06:39.920Z,23.90
2023-02-16T09:07:41.637Z,26.07
2023-02-16T09:08:44.766Z,25.77
2023-02-16T09:09:48.132Z,25.07
2023-02-16T09:10:49.883Z,24.83
2023-02-16T09:11:51.855Z,23.20
2023-02-16T09:12:53.601Z,26.73
2023-02-16T09:13:55.406Z,24.40
2023-02-16T09:14:57.297Z,26.90
2023-02-16T09:16:05.265Z,23.80
2023-02-16T09:17:07.251Z,22.33
2023-02-16T09:18:09.979Z,24.03
2023-02-16T09:19:14.929Z,20.50
2023-02-16T09:20:17.275Z,21.60
2023-02-16T09:21:25.582Z,21.27
2023-02-16T09:22:27.303Z,22.00
2023-02-16T09:23:29.174Z,20.23
2023-02-16T09:24:30.893Z,21.33
2023-02-16T09:25:35.869Z,25.73
2023-02-16T09:26:39.004Z,25.00
2023-02-16T09:27:40.683Z,21.53
2023-02-16T09:28:42.730Z,26.37
2023-02-16T09:29:44.436Z,22.37
2023-02-16T09:30:46.242Z,23.50
2023-02-16T09:31:48.109Z,19.43
2023-02-16T09:32:50.166Z,24.10
2023-02-16T09:33:54.455Z,23.90
2023-02-16T09:34:56.337Z,19.67
2023-02-16T09:35:58.160Z,22.27
2023-02-16T09:36:59.868Z,23.07
2023-02-16T09:38:02.482Z,20.97
2023-02-16T09:39:04.358Z,22.13
2023-02-16T09:40:07.374Z,21.50
2023-02-16T09:41:23.277Z,24.10
2023-02-16T09:42:52.373Z,20.27
2023-02-16T09:44:03.502Z,21.77
2023-02-16T09:45:11.474Z,20.53
2023-02-16T09:46:19.974Z,19.73
2023-02-16T09:47:31.547Z,21.43
2023-02-16T09:48:42.636Z,24.67
2023-02-16T09:49:45.610Z,21.07
2023-02-16T09:50:54.429Z,26.10
2023-02-16T09:52:27.176Z,23.10
2023-02-16T09:53:42.780Z,22.70
2023-02-16T09:54:51.808Z,28.10
2023-02-16T09:56:22.676Z,18.97
2023-02-16T09:57:55.442Z,22.60
2023-02-16T09:59:27.122Z,23.10
2023-02-16T10:00:37.904Z,23.07
2023-02-16T10:01:56.770Z,28.40
2023-02-16T10:03:16.422Z,21.93
2023-02-16T10:04:39.422Z,20.80
2023-02-16T10:06:21.509Z,46.20
2023-02-16T10:07:23.595Z,22.43
2023-02-16T10:08:51.263Z,19.20
2023-02-16T10:09:55.278Z,19.40
2023-02-16T10:11:30.734Z,25.10
2023-02-16T10:12:43.052Z,19.60
2023-02-16T10:13:54.212Z,20.47
2023-02-16T10:15:04.102Z,20.03
2023-02-16T10:16:11.222Z,22.93
2023-02-16T10:17:23.916Z,25.97
2023-02-16T10:18:35.936Z,21.50
2023-02-16T10:19:51.053Z,20.47
2023-02-16T10:20:56.636Z,21.90
2023-02-16T10:22:02.539Z,20.43
2023-02-16T10:23:26.951Z,19.03
2023-02-16T10:24:32.062Z,23.80
2023-02-16T10:26:26.112Z,21.37
2023-02-16T10:27:36.961Z,23.47
2023-02-16T10:28:46.447Z,22.37
2023-02-16T10:29:48.423Z,18.87
2023-02-16T10:31:10.437Z,19.00
2023-02-16T10:32:30.506Z,19.87
2023-02-16T10:33:55.975Z,17.10
2023-02-16T10:35:15.259Z,18.90
2023-02-16T10:36:59.078Z,20.13
2023-02-16T10:38:27.241Z,23.60
2023-02-16T10:39:41.408Z,20.87
2023-02-16T10:40:51.964Z,27.63
2023-02-16T10:42:17.668Z,22.33
2023-02-16T10:43:32.116Z,22.47
2023-02-16T10:44:40.272Z,19.23
2023-02-16T10:46:01.773Z,21.90
2023-02-16T10:47:06.402Z,21.10
2023-02-16T10:48:10.709Z,22.33
2023-02-16T10:49:15.277Z,19.43
2023-02-16T10:50:38.048Z,20.03
2023-02-16T10:51:41.782Z,18.37
2023-02-16T10:52:44.888Z,20.67
2023-02-16T10:53:59.303Z,24.20
2023-02-16T10:55:02.059Z,21.10
2023-02-16T10:56:36.720Z,19.17
2023-02-16T10:57:39.791Z,17.03
2023-02-16T10:58:42.500Z,19.37
2023-02-16T10:59:45.785Z,22.35
2023-02-16T11:01:13.382Z,16.87
2023-02-16T11:02:20.349Z,18.67
2023-02-16T11:03:30.459Z,21.17
2023-02-16T11:04:43.922Z,17.80
2023-02-16T11:05:46.689Z,16.00
2023-02-16T11:07:12.014Z,19.07
2023-02-16T11:08:14.148Z,22.97
2023-02-16T11:09:15.871Z,15.77
2023-02-16T11:10:50.786Z,21.83
2023-02-16T11:11:52.521Z,20.50
2023-02-16T11:12:59.944Z,16.67
2023-02-16T11:14:23.697Z,14.77
2023-02-16T11:15:27.343Z,21.43
2023-02-16T11:16:29.882Z,14.53
2023-02-16T11:17:47.103Z,19.03
2023-02-16T11:18:57.949Z,16.27
2023-02-16T11:20:05.995Z,15.33
2023-02-16T11:21:09.881Z,17.40
2023-02-16T11:22:29.828Z,16.63
2023-02-16T11:23:40.641Z,14.87
2023-02-16T11:24:42.435Z,17.08
2023-02-16T11:26:04.233Z,15.20
2023-02-16T11:27:19.702Z,16.90
2023-02-16T11:28:32.753Z,18.17
2023-02-16T11:29:34.848Z,17.83
2023-02-16T11:30:40.238Z,19.98
2023-02-16T11:31:42.088Z,21.47
2023-02-16T11:32:43.946Z,21.73
2023-02-16T11:33:56.740Z,20.00
2023-02-16T11:34:58.510Z,18.45
2023-02-16T11:36:05.183Z,16.17
2023-02-16T11:37:31.948Z,18.40
2023-02-16T11:38:35.954Z,16.30
2023-02-16T11:39:41.906Z,16.47
2023-02-16T11:40:52.691Z,18.43
2023-02-16T11:41:57.498Z,16.10
2023-02-16T11:43:01.343Z,13.50
2023-02-16T11:44:04.038Z,14.53
2023-02-16T11:45:07.232Z,16.40
2023-02-16T11:46:18.457Z,14.98
2023-02-16T11:47:24.933Z,12.70
2023-02-16T11:48:32.810Z,13.63
2023-02-16T11:49:34.586Z,13.33
2023-02-16T11:50:39.494Z,16.55
2023-02-16T11:51:41.849Z,16.27
2023-02-16T11:52:43.676Z,17.92
2023-02-16T11:53:46.263Z,12.82
2023-02-16T11:54:58.930Z,19.33
2023-02-16T11:56:27.242Z,16.08
2023-02-16T11:57:32.329Z,18.92
2023-02-16T11:58:34.561Z,23.50
2023-02-16T11:59:40.779Z,20.77
2023-02-16T12:01:08.710Z,17.23
2023-02-16T12:02:45.169Z,16.50
2023-02-16T12:03:53.035Z,20.98
2023-02-16T12:05:34.746Z,18.80
2023-02-16T12:07:01.465Z,12.60
2023-02-16T12:08:18.988Z,12.27
2023-02-16T12:09:26.902Z,16.02
2023-02-16T12:10:38.830Z,12.82
2023-02-16T12:11:43.244Z,14.60
2023-02-16T12:13:32.582Z,13.52
2023-02-16T12:15:04.052Z,10.82
2023-02-16T12:16:20.720Z,12.10
2023-02-16T12:17:44.761Z,13.30
2023-02-16T12:19:02.699Z,6.70
2023-02-16T12:20:11.398Z,13.73
2023-02-16T12:21:40.991Z,11.10
2023-02-16T12:22:49.207Z,11.98
2023-02-16T12:23:59.802Z,9.93
2023-02-16T12:25:27.744Z,8.68
2023-02-16T12:26:36.743Z,15.63
2023-02-16T12:28:01.731Z,9.50
2023-02-16T12:29:12.487Z,9.63
2023-02-16T12:30:39.842Z,11.38
2023-02-16T12:32:04.736Z,7.70
2023-02-16T12:33:34.685Z,6.95
2023-02-16T12:35:05.774Z,5.95
2023-02-16T12:36:25.549Z,6.03
2023-02-16T12:37:52.363Z,8.98
2023-02-16T12:39:18.347Z,13.35
2023-02-16T12:40:53.840Z,10.80
2023-02-16T12:42:04.409Z,8.25
2023-02-16T12:43:08.778Z,10.40
2023-02-16T12:44:19.144Z,9.48
2023-02-16T12:45:23.862Z,11.13
2023-02-16T12:46:39.558Z,11.15
2023-02-16T12:47:52.331Z,9.20
2023-02-16T12:49:03.717Z,10.18
2023-02-16T12:50:32.125Z,11.05
2023-02-16T12:51:39.178Z,11.82
2023-02-16T12:52:52.754Z,10.70
2023-02-16T12:54:17.281Z,7.32
2023-02-16T12:55:29.653Z,10.52
2023-02-16T12:56:50.235Z,9.45
2023-02-16T12:58:09.764Z,10.38
2023-02-16T12:59:26.128Z,12.15
2023-02-16T13:00:48.123Z,12.05
2023-02-16T13:01:56.085Z,8.52
2023-02-16T13:03:09.440Z,8.05
2023-02-16T13:04:29.895Z,11.85
2023-02-16T13:05:36.143Z,11.23
2023-02-16T13:07:06.444Z,12.20
2023-02-16T13:08:31.498Z,11.93
2023-02-16T13:09:40.037Z,9.88
2023-02-16T13:11:12.108Z,10.07
2023-02-16T13:12:28.951Z,9.50
2023-02-16T13:13:34.558Z,10.88
2023-02-16T13:14:40.298Z,11.52
2023-02-16T13:16:20.425Z,12.10
2023-02-16T13:17:36.889Z,12.40
2023-02-16T13:18:44.314Z,11.02
2023-02-16T13:19:47.213Z,9.02
2023-02-16T13:20:54.051Z,9.52
2023-02-16T13:22:27.338Z,8.75
2023-02-16T13:23:46.943Z,8.95
2023-02-16T13:25:26.954Z,9.13
2023-02-16T13:26:39.872Z,9.52
2023-02-16T13:28:27.954Z,8.77
2023-02-16T13:29:52.593Z,12.05
2023-02-16T13:31:04.673Z,11.88
2023-02-16T13:32:19.293Z,10.20
2023-02-16T13:33:37.402Z,10.27
2023-02-16T13:35:15.220Z,8.25
2023-02-16T13:36:28.918Z,11.93
2023-02-16T13:37:57.137Z,10.00
2023-02-16T13:39:14.098Z,11.25
2023-02-16T13:40:51.731Z,10.57
2023-02-16T13:42:12.176Z,11.30
2023-02-16T13:43:22.248Z,9.38
2023-02-16T13:44:32.074Z,9.13
2023-02-16T13:45:40.146Z,13.65
2023-02-16T13:46:50.149Z,10.63
2023-02-16T13:47:54.726Z,11.98
2023-02-16T13:48:56.932Z,9.25
2023-02-16T13:50:01.512Z,8.68
2023-02-16T13:51:10.731Z,9.88
2023-02-16T13:52:35.510Z,11.95
2023-02-16T13:53:39.542Z,10.85
2023-02-16T13:54:45.415Z,10.75
2023-02-16T13:55:49.664Z,13.88
2023-02-16T13:56:51.538Z,10.13
2023-02-16T13:58:02.243Z,11.60
2023-02-16T13:59:36.715Z,11.27
2023-02-16T14:00:42.303Z,13.07
2023-02-16T14:01:45.135Z,11.10
2023-02-16T14:03:22.235Z,10.70
2023-02-16T14:04:24.657Z,12.80
2023-02-16T14:05:30.411Z,10.98
2023-02-16T14:06:37.773Z,12.30
2023-02-16T14:07:40.039Z,12.65
2023-02-16T14:08:43.695Z,14.18
2023-02-16T14:09:48.554Z,12.40
2023-02-16T14:10:53.250Z,10.23
2023-02-16T14:11:55.134Z,18.55
2023-02-16T14:12:56.926Z,11.98
2023-02-16T14:13:58.676Z,12.25
2023-02-16T14:15:05.282Z,17.00
2023-02-16T14:16:17.252Z,13.82
2023-02-16T14:17:22.479Z,14.35
2023-02-16T14:18:33.024Z,13.07
2023-02-16T14:19:35.747Z,8.82
2023-02-16T14:20:37.495Z,11.65
2023-02-16T14:21:46.070Z,11.55
2023-02-16T14:22:52.794Z,12.00
2023-02-16T14:23:59.889Z,10.20
2023-02-16T14:25:05.819Z,10.73
2023-02-16T14:26:10.142Z,11.02
2023-02-16T14:27:13.287Z,11.60
2023-02-16T14:28:21.435Z,12.80
2023-02-16T14:29:55.430Z,8.85
2023-02-16T14:30:59.709Z,11.05
2023-02-16T14:32:22.659Z,10.27
2023-02-16T14:33:53.712Z,10.60
2023-02-16T14:35:13.455Z,12.27
2023-02-16T14:36:17.644Z,10.55
2023-02-16T14:37:34.713Z,9.05
2023-02-16T14:39:01.322Z,10.48